Time;durP1;ratioP1;P1;durP2;ratioP2;P2;SDS_P1;SDS_P2;PMS_P1;PMS_P2;Temp;Humidity;BMP_temperature;BMP_pressure;BME280_temperature;BME280_humidity;BME280_pressure;Samples;Min_cycle;Max_cycle;Signal;HPM_P1;HPM_P2
2023/08/15 00:00:42;;;;;;;4.63;3.25;;;22.50;99.90;;;;;;5077562;28;20040;-35
2023/08/15 00:03:07;;;;;;;5.60;2.80;;;22.50;99.90;;;;;;5082532;28;20594;-36
2023/08/15 00:05:35;;;;;;;3.08;2.53;;;22.50;99.90;;;;;;5079794;28;20020;-34
2023/08/15 00:08:01;;;;;;;4.15;2.85;;;22.50;99.90;;;;;;5075062;28;20025;-36
2023/08/15 00:10:29;;;;;;;4.50;2.60;;;22.50;99.90;;;;;;5081308;28;20314;-36
2023/08/15 00:12:55;;;;;;;3.22;2.40;;;22.50;99.90;;;;;;5073105;28;20141;-35
2023/08/15 00:15:20;;;;;;;4.75;3.13;;;22.40;99.90;;;;;;5081277;28;20131;-36
2023/08/15 00:17:46;;;;;;;5.07;3.03;;;22.40;99.90;;;;;;5071872;28;20127;-41
2023/08/15 00:20:11;;;;;;;4.97;3.33;;;22.40;99.90;;;;;;5082913;28;20699;-36
2023/08/15 00:22:37;;;;;;;4.40;2.72;;;22.40;99.90;;;;;;5071265;28;20020;-36
2023/08/15 00:25:06;;;;;;;4.38;2.60;;;22.40;99.90;;;;;;5082666;28;20101;-35
2023/08/15 00:27:31;;;;;;;3.40;2.83;;;22.40;99.90;;;;;;5070569;28;20706;-36
2023/08/15 00:29:57;;;;;;;4.50;2.92;;;22.30;99.90;;;;;;5082594;28;20085;-36
2023/08/15 00:32:22;;;;;;;4.30;2.97;;;22.30;99.90;;;;;;5070200;28;20024;-34
2023/08/15 00:34:48;;;;;;;3.50;2.67;;;22.30;99.90;;;;;;5083327;28;20050;-36
2023/08/15 00:37:14;;;;;;;3.72;2.80;;;22.30;99.90;;;;;;5073966;28;20027;-36
2023/08/15 00:39:39;;;;;;;4.88;3.20;;;22.30;99.90;;;;;;5079941;28;20103;-36
2023/08/15 00:42:05;;;;;;;3.30;2.80;;;22.20;99.90;;;;;;5076199;28;20015;-34
2023/08/15 00:44:30;;;;;;;5.20;3.20;;;22.20;99.90;;;;;;5077473;28;20127;-37
2023/08/15 00:46:56;;;;;;;3.60;2.80;;;22.20;99.90;;;;;;5079700;28;20075;-36
2023/08/15 00:49:22;;;;;;;3.50;2.75;;;22.20;99.90;;;;;;5078112;28;20028;-36
2023/08/15 00:51:48;;;;;;;5.00;2.63;;;22.20;99.90;;;;;;5085862;28;20079;-37
2023/08/15 00:54:14;;;;;;;3.67;2.83;;;22.20;99.90;;;;;;5074993;28;20039;-36
2023/08/15 00:56:40;;;;;;;5.47;3.10;;;22.20;99.90;;;;;;5084425;28;20024;-36
2023/08/15 00:59:09;;;;;;;3.70;2.80;;;22.10;99.90;;;;;;5074292;28;20553;-36
2023/08/15 01:01:36;;;;;;;4.45;3.20;;;22.10;99.90;;;;;;5078485;28;20091;-36
2023/08/15 01:04:05;;;;;;;4.47;3.28;;;22.10;99.90;;;;;;5077231;28;20376;-37
2023/08/15 01:06:34;;;;;;;3.58;3.20;;;22.10;99.90;;;;;;5065362;28;20081;-37
2023/08/15 01:09:00;;;;;;;3.40;2.88;;;22.10;99.90;;;;;;5078754;28;20154;-35
2023/08/15 01:11:34;;;;;;;4.03;2.70;;;22.10;99.90;;;;;;5065716;28;20488;-35
2023/08/15 01:14:05;;;;;;;4.13;3.08;;;22.10;99.90;;;;;;5077801;28;20028;-35
2023/08/15 01:16:36;;;;;;;4.43;3.13;;;22.10;99.90;;;;;;5066779;28;20107;-36
2023/08/15 01:19:12;;;;;;;3.33;3.00;;;22.10;99.90;;;;;;5077289;28;20528;-35
2023/08/15 01:21:47;;;;;;;4.63;2.85;;;22.00;99.90;;;;;;5066080;28;20081;-35
2023/08/15 01:24:14;;;;;;;3.85;2.60;;;22.00;99.90;;;;;;5077819;28;20016;-34
2023/08/15 01:26:39;;;;;;;4.38;3.00;;;22.00;99.90;;;;;;5066627;28;20060;-34
2023/08/15 01:29:05;;;;;;;3.55;2.53;;;22.00;99.90;;;;;;5075242;28;20705;-34
2023/08/15 01:31:46;;;;;;;4.68;3.30;;;22.00;99.90;;;;;;5068519;28;20025;-35
2023/08/15 01:34:36;;;;;;;2.90;2.63;;;22.00;99.90;;;;;;5075329;28;20422;-35
2023/08/15 01:37:09;;;;;;;3.22;2.90;;;22.00;99.90;;;;;;5065562;28;20033;-36
2023/08/15 01:39:36;;;;;;;3.83;3.13;;;21.90;99.90;;;;;;5076692;28;20032;-35
2023/08/15 01:42:02;;;;;;;4.63;3.13;;;22.00;99.90;;;;;;5065523;28;20021;-35
2023/08/15 01:44:33;;;;;;;3.75;2.58;;;22.00;99.90;;;;;;5074620;28;20025;-36
2023/08/15 01:46:58;;;;;;;4.38;2.60;;;22.00;99.90;;;;;;5068638;28;20399;-36
2023/08/15 01:49:24;;;;;;;6.50;3.38;;;22.00;99.90;;;;;;5072739;28;20034;-36
2023/08/15 01:51:59;;;;;;;4.70;3.55;;;22.00;99.90;;;;;;5071455;28;20162;-35
2023/08/15 01:54:26;;;;;;;5.22;3.15;;;21.90;99.90;;;;;;5072015;28;20147;-36
2023/08/15 01:56:54;;;;;;;4.30;3.20;;;21.90;99.90;;;;;;5071805;28;20108;-35
2023/08/15 01:59:20;;;;;;;5.60;2.78;;;21.80;99.90;;;;;;5068771;28;20044;-35
2023/08/15 02:01:45;;;;;;;4.80;3.20;;;21.80;99.90;;;;;;5082212;28;20019;-36
2023/08/15 02:04:11;;;;;;;5.30;3.33;;;21.80;99.90;;;;;;5082886;28;20383;-36
2023/08/15 02:06:42;;;;;;;3.25;2.92;;;21.80;99.90;;;;;;5073590;28;20482;-36
2023/08/15 02:09:09;;;;;;;3.63;2.67;;;21.80;99.90;;;;;;5082374;28;20035;-35
2023/08/15 02:11:43;;;;;;;4.43;3.08;;;21.80;99.90;;;;;;5072416;28;20031;-35
2023/08/15 02:14:15;;;;;;;3.65;2.95;;;21.80;99.90;;;;;;5082929;28;20016;-36
2023/08/15 02:16:41;;;;;;;4.60;3.20;;;21.80;99.90;;;;;;5073834;28;20016;-34
2023/08/15 02:19:21;;;;;;;5.32;3.03;;;21.70;99.90;;;;;;5083617;28;20078;-36
2023/08/15 02:21:53;;;;;;;3.33;2.90;;;21.80;99.90;;;;;;5076373;28;20036;-36
2023/08/15 02:24:19;;;;;;;3.67;3.10;;;21.70;99.90;;;;;;5064450;28;20032;-36
2023/08/15 02:26:50;;;;;;;4.97;3.42;;;21.70;99.90;;;;;;5077222;28;20024;-35
2023/08/15 02:29:16;;;;;;;4.82;3.47;;;21.70;99.90;;;;;;5063360;28;20602;-36
2023/08/15 02:31:47;;;;;;;4.97;3.40;;;21.70;99.90;;;;;;5076494;28;20024;-36
2023/08/15 02:34:13;;;;;;;3.57;3.17;;;21.70;99.90;;;;;;5064451;28;20101;-35
2023/08/15 02:36:38;;;;;;;3.83;3.20;;;21.60;99.90;;;;;;5077039;28;20274;-36
2023/08/15 02:39:04;;;;;;;4.63;2.80;;;21.60;99.90;;;;;;5063726;28;20035;-35
2023/08/15 02:41:29;;;;;;;6.85;3.30;;;21.60;99.90;;;;;;5075299;28;20483;-35
2023/08/15 02:43:55;;;;;;;4.45;3.25;;;21.50;99.90;;;;;;5067248;28;20024;-34
2023/08/15 02:46:22;;;;;;;4.38;3.30;;;21.50;99.90;;;;;;5070719;28;20093;-35
2023/08/15 02:48:47;;;;;;;6.30;3.83;;;21.50;99.90;;;;;;5068507;28;20127;-36
2023/08/15 02:51:13;;;;;;;4.85;3.17;;;21.40;99.90;;;;;;5068928;28;20132;-34
2023/08/15 02:53:38;;;;;;;4.13;3.45;;;21.40;99.90;;;;;;5071336;28;20032;-35
2023/08/15 02:56:04;;;;;;;4.30;3.33;;;21.30;99.90;;;;;;5066614;28;20103;-35
2023/08/15 02:58:29;;;;;;;4.15;2.90;;;21.30;99.90;;;;;;5074527;28;20102;-35
2023/08/15 03:00:55;;;;;;;5.18;3.42;;;21.30;99.90;;;;;;5065113;28;20101;-36
2023/08/15 03:03:21;;;;;;;4.47;2.92;;;21.30;99.90;;;;;;5075054;28;20101;-35
2023/08/15 03:05:46;;;;;;;5.05;3.53;;;21.20;99.90;;;;;;5065085;28;20024;-34
2023/08/15 03:08:12;;;;;;;5.60;3.38;;;21.20;99.90;;;;;;5074978;28;20085;-35
2023/08/15 03:10:39;;;;;;;4.60;3.17;;;21.20;99.90;;;;;;5064065;28;20033;-35
2023/08/15 03:13:05;;;;;;;5.07;3.42;;;21.20;99.90;;;;;;5075227;28;20032;-35
2023/08/15 03:15:35;;;;;;;4.47;2.90;;;21.20;99.90;;;;;;5063546;28;20813;-35
2023/08/15 03:18:01;;;;;;;3.72;2.70;;;21.10;99.90;;;;;;5075398;28;20032;-36
2023/08/15 03:20:27;;;;;;;4.38;3.08;;;21.10;99.90;;;;;;5063135;28;20038;-35
2023/08/15 03:22:52;;;;;;;4.55;3.10;;;21.00;99.90;;;;;;5074201;28;20111;-36
2023/08/15 03:25:18;;;;;;;4.55;3.13;;;21.10;99.90;;;;;;5065819;28;20451;-36
2023/08/15 03:27:43;;;;;;;4.45;3.08;;;21.00;99.90;;;;;;5070684;28;20073;-35
2023/08/15 03:30:09;;;;;;;4.15;2.55;;;21.00;99.90;;;;;;5069105;28;20039;-35
2023/08/15 03:32:35;;;;;;;3.70;2.47;;;20.90;99.90;;;;;;5069022;28;20019;-35
2023/08/15 03:35:04;;;;;;;6.90;2.90;;;20.90;99.90;;;;;;5070425;28;20441;-34
2023/08/15 03:37:29;;;;;;;3.83;2.70;;;20.80;99.90;;;;;;5066564;28;20645;-36
2023/08/15 03:39:55;;;;;;;4.13;2.80;;;20.80;99.90;;;;;;5074463;28;20043;-36
2023/08/15 03:42:20;;;;;;;6.55;2.70;;;20.80;99.90;;;;;;5063668;28;20478;-34
2023/08/15 03:44:46;;;;;;;6.13;2.47;;;20.80;99.90;;;;;;5075384;28;20028;-34
2023/08/15 03:47:12;;;;;;;4.75;2.60;;;20.70;99.90;;;;;;5065093;28;20023;-35
2023/08/15 03:49:37;;;;;;;6.07;2.63;;;20.70;99.90;;;;;;5075213;28;20021;-36
2023/08/15 03:52:04;;;;;;;2.75;2.25;;;20.70;99.90;;;;;;5063553;28;20067;-37
2023/08/15 03:54:29;;;;;;;3.78;2.30;;;20.60;99.90;;;;;;5076399;28;20656;-36
2023/08/15 03:56:55;;;;;;;4.70;2.83;;;20.60;99.90;;;;;;5062783;28;20024;-35
2023/08/15 03:59:21;;;;;;;4.32;2.83;;;20.50;99.90;;;;;;5075121;28;20036;-35
2023/08/15 04:01:49;;;;;;;3.83;2.70;;;20.50;99.90;;;;;;5069981;28;20379;-35
2023/08/15 04:04:14;;;;;;;3.42;2.97;;;20.50;99.90;;;;;;5072329;28;20120;-35
2023/08/15 04:06:40;;;;;;;4.22;2.78;;;20.50;99.90;;;;;;5081129;28;20131;-34
2023/08/15 04:09:06;;;;;;;2.97;2.60;;;20.50;99.90;;;;;;5075959;28;20017;-35
2023/08/15 04:11:31;;;;;;;3.33;2.75;;;20.40;99.90;;;;;;5079071;28;20421;-38
2023/08/15 04:13:57;;;;;;;6.50;2.90;;;20.40;99.90;;;;;;5078501;28;20028;-35
2023/08/15 04:16:22;;;;;;;3.53;2.78;;;20.30;99.90;;;;;;5075474;28;20047;-35
2023/08/15 04:18:48;;;;;;;6.78;3.30;;;20.20;99.90;;;;;;5081622;28;20043;-35
2023/08/15 04:21:13;;;;;;;5.03;3.00;;;20.20;99.90;;;;;;5071629;28;20040;-34
2023/08/15 04:23:39;;;;;;;4.53;3.10;;;20.10;99.90;;;;;;5082485;28;20078;-36
2023/08/15 04:26:06;;;;;;;5.07;3.08;;;20.10;99.90;;;;;;5074560;28;20360;-35
2023/08/15 04:28:34;;;;;;;4.90;2.90;;;20.00;99.90;;;;;;5085916;28;20115;-35
2023/08/15 04:31:00;;;;;;;4.60;2.80;;;20.00;99.90;;;;;;5074256;28;20047;-35
2023/08/15 04:33:25;;;;;;;5.05;3.03;;;20.00;99.90;;;;;;5087729;28;20777;-35
2023/08/15 04:35:51;;;;;;;5.47;3.05;;;20.00;99.90;;;;;;5073829;28;20093;-36
2023/08/15 04:38:16;;;;;;;3.67;2.83;;;19.90;99.90;;;;;;5086951;28;20032;-37
2023/08/15 04:40:43;;;;;;;4.20;2.80;;;19.90;99.90;;;;;;5074801;28;20418;-35
2023/08/15 04:43:09;;;;;;;3.95;3.00;;;19.90;99.90;;;;;;5086852;28;20112;-35
2023/08/15 04:45:40;;;;;;;5.03;3.40;;;19.80;99.90;;;;;;5076314;28;20028;-35
2023/08/15 04:48:07;;;;;;;4.78;2.92;;;19.80;99.90;;;;;;5084971;28;20027;-37
2023/08/15 04:50:33;;;;;;;5.25;3.10;;;19.70;99.90;;;;;;5078029;28;20040;-36
2023/08/15 04:52:59;;;;;;;7.28;3.15;;;19.80;99.90;;;;;;5082139;28;20024;-35
2023/08/15 04:55:24;;;;;;;4.15;2.63;;;19.80;99.90;;;;;;5081030;28;20033;-36
2023/08/15 04:57:50;;;;;;;4.80;2.80;;;19.80;99.90;;;;;;5080625;28;20115;-35
2023/08/15 05:00:19;;;;;;;3.92;2.75;;;19.80;99.90;;;;;;5082634;28;20032;-36
2023/08/15 05:02:45;;;;;;;5.43;2.88;;;19.70;99.90;;;;;;5080572;28;20353;-36
2023/08/15 05:05:16;;;;;;;4.63;3.17;;;19.80;99.90;;;;;;5084110;28;20028;-36
2023/08/15 05:07:42;;;;;;;5.40;3.42;;;19.80;99.90;;;;;;5075920;28;20098;-35
2023/08/15 05:10:08;;;;;;;4.82;3.13;;;19.80;99.90;;;;;;5084996;28;20020;-36
2023/08/15 05:12:37;;;;;;;4.43;3.33;;;19.90;99.90;;;;;;5075195;28;20027;-35
2023/08/15 05:15:03;;;;;;;6.40;3.10;;;19.90;99.90;;;;;;5086170;28;20101;-33
2023/08/15 05:17:28;;;;;;;5.28;3.15;;;19.90;99.90;;;;;;5075106;28;20348;-35
2023/08/15 05:19:54;;;;;;;6.15;3.20;;;19.90;99.90;;;;;;5085683;28;20078;-35
2023/08/15 05:22:19;;;;;;;4.28;3.20;;;19.90;99.90;;;;;;5073738;28;20617;-36
2023/08/15 05:24:45;;;;;;;5.30;2.53;;;19.90;99.90;;;;;;5087058;28;20824;-35
2023/08/15 05:27:14;;;;;;;5.32;2.50;;;19.90;99.90;;;;;;5074362;28;20028;-34
2023/08/15 05:29:43;;;;;;;3.83;2.90;;;19.80;99.90;;;;;;5083869;28;20684;-36
2023/08/15 05:32:09;;;;;;;4.43;2.83;;;19.80;99.90;;;;;;5074486;28;20142;-35
2023/08/15 05:34:35;;;;;;;5.20;2.83;;;19.80;99.90;;;;;;5081431;28;20913;-36
2023/08/15 05:37:01;;;;;;;4.60;2.53;;;19.80;99.90;;;;;;5075021;28;20023;-37
2023/08/15 05:39:26;;;;;;;4.10;2.25;;;19.80;99.90;;;;;;5079913;28;20040;-36
2023/08/15 05:41:52;;;;;;;3.85;2.63;;;19.80;99.90;;;;;;5079563;28;20048;-35
2023/08/15 05:44:20;;;;;;;4.00;2.38;;;19.80;99.90;;;;;;5077377;28;20070;-35
2023/08/15 05:46:45;;;;;;;4.45;2.72;;;19.80;99.90;;;;;;5081720;28;20012;-37
2023/08/15 05:49:14;;;;;;;4.10;2.40;;;19.80;99.90;;;;;;5068718;28;20028;-36
2023/08/15 05:51:39;;;;;;;5.93;2.38;;;19.80;99.90;;;;;;5070469;28;20048;-34
2023/08/15 05:54:05;;;;;;;3.47;2.40;;;19.80;99.90;;;;;;5074358;28;20028;-36
2023/08/15 05:56:30;;;;;;;4.20;2.30;;;19.80;99.90;;;;;;5081182;28;20024;-36
2023/08/15 05:58:56;;;;;;;4.72;2.70;;;19.70;99.90;;;;;;5071760;28;20076;-36
2023/08/15 06:01:22;;;;;;;7.95;2.38;;;19.70;99.90;;;;;;5076504;28;20028;-35
2023/08/15 06:03:48;;;;;;;7.30;3.13;;;19.70;99.90;;;;;;5067876;28;20492;-34
2023/08/15 06:06:14;;;;;;;4.85;3.28;;;19.80;99.90;;;;;;5079915;28;20031;-36
2023/08/15 06:08:39;;;;;;;4.70;2.95;;;19.80;99.90;;;;;;5082748;28;20091;-39
2023/08/15 06:11:05;;;;;;;5.80;3.30;;;19.80;99.90;;;;;;5066310;28;20056;-35
2023/08/15 06:13:31;;;;;;;3.08;2.60;;;19.80;99.90;;;;;;5074264;28;20031;-34
2023/08/15 06:15:57;;;;;;;6.10;3.60;;;19.80;99.90;;;;;;5066538;28;20036;-36
2023/08/15 06:18:24;;;;;;;4.68;3.03;;;19.80;99.90;;;;;;5069183;28;20024;-35
2023/08/15 06:20:50;;;;;;;7.15;3.13;;;19.90;99.90;;;;;;5070985;28;20044;-34
2023/08/15 06:23:19;;;;;;;3.97;2.60;;;19.90;99.90;;;;;;5070696;28;20033;-34
2023/08/15 06:25:44;;;;;;;3.97;2.45;;;19.90;99.90;;;;;;5077835;28;20027;-35
2023/08/15 06:28:10;;;;;;;4.78;2.78;;;19.90;99.90;;;;;;5072940;28;20407;-37
2023/08/15 06:30:35;;;;;;;6.35;3.25;;;19.90;99.90;;;;;;5073823;28;20205;-35
2023/08/15 06:33:01;;;;;;;5.25;2.80;;;20.00;99.90;;;;;;5066408;28;20474;-35
2023/08/15 06:35:32;;;;;;;5.60;2.72;;;20.00;99.90;;;;;;5082936;28;20399;-34
2023/08/15 06:38:01;;;;;;;3.33;2.20;;;20.00;99.90;;;;;;5078884;28;20208;-34
2023/08/15 06:40:27;;;;;;;7.13;3.08;;;20.00;99.90;;;;;;5077006;28;20054;-35
2023/08/15 06:42:55;;;;;;;5.22;3.50;;;20.10;99.90;;;;;;5076583;28;20062;-36
2023/08/15 06:45:20;;;;;;;5.70;2.75;;;20.10;99.90;;;;;;5067964;28;20024;-35
2023/08/15 06:47:46;;;;;;;3.40;2.10;;;20.20;99.90;;;;;;5080903;28;20028;-36
2023/08/15 06:50:12;;;;;;;4.43;2.25;;;20.20;99.90;;;;;;5074996;28;20771;-35
2023/08/15 06:52:40;;;;;;;5.63;2.60;;;20.30;99.90;;;;;;5083726;28;20196;-35
2023/08/15 06:55:06;;;;;;;4.55;2.13;;;20.40;99.90;;;;;;5072899;28;20024;-35
2023/08/15 06:57:45;;;;;;;4.70;2.45;;;20.50;99.90;;;;;;5066517;28;20508;-43
2023/08/15 07:00:12;;;;;;;4.65;2.78;;;20.60;99.90;;;;;;5073545;28;20083;-45
2023/08/15 07:02:38;;;;;;;4.03;2.25;;;20.80;99.90;;;;;;5076438;28;20042;-43
2023/08/15 07:05:07;;;;;;;3.75;2.30;;;20.90;99.90;;;;;;5076440;28;21722;-43
2023/08/15 07:07:33;;;;;;;6.80;2.70;;;20.90;99.90;;;;;;5079729;28;20028;-44
2023/08/15 07:09:59;;;;;;;3.35;2.22;;;21.00;99.90;;;;;;5077760;28;20093;-44
2023/08/15 07:12:24;;;;;;;4.70;2.42;;;21.10;99.90;;;;;;5077580;28;20047;-44
2023/08/15 07:14:53;;;;;;;6.10;2.88;;;21.20;99.90;;;;;;5080610;28;20097;-44
2023/08/15 07:17:18;;;;;;;6.40;2.85;;;21.30;99.90;;;;;;5075225;28;20020;-44
2023/08/15 07:19:44;;;;;;;3.85;1.80;;;21.40;99.90;;;;;;5081582;28;20039;-45
2023/08/15 07:22:09;;;;;;;4.32;2.58;;;21.40;99.90;;;;;;5071832;28;20032;-44
2023/08/15 07:24:35;;;;;;;6.25;3.10;;;21.40;99.90;;;;;;5083028;28;20460;-42
2023/08/15 07:27:01;;;;;;;4.40;2.60;;;21.40;99.90;;;;;;5071866;28;20374;-44
2023/08/15 07:29:27;;;;;;;6.75;2.60;;;21.40;99.90;;;;;;5084556;28;20032;-43
2023/08/15 07:31:52;;;;;;;5.70;3.08;;;21.40;99.90;;;;;;5072969;28;20036;-42
2023/08/15 07:34:18;;;;;;;5.40;2.65;;;21.50;99.90;;;;;;5083384;28;20436;-42
2023/08/15 07:36:43;;;;;;;5.35;2.28;;;21.50;99.90;;;;;;5071265;28;20024;-42
2023/08/15 07:39:12;;;;;;;4.78;2.60;;;21.50;99.90;;;;;;5083547;28;20102;-45
2023/08/15 07:41:38;;;;;;;4.70;2.85;;;21.50;99.90;;;;;;5072229;28;20024;-44
2023/08/15 07:44:07;;;;;;;5.70;2.97;;;21.50;99.90;;;;;;5082560;28;20043;-43
2023/08/15 07:46:41;;;;;;;3.13;2.00;;;21.60;99.90;;;;;;5074686;28;20048;-43
2023/08/15 07:49:07;;;;;;;4.63;2.60;;;21.60;99.90;;;;;;5079704;28;20160;-43
2023/08/15 07:51:33;;;;;;;4.13;2.28;;;21.60;99.90;;;;;;5074199;28;20503;-43
2023/08/15 07:53:58;;;;;;;4.90;2.10;;;21.70;99.90;;;;;;5075371;28;20589;-43
2023/08/15 07:56:24;;;;;;;6.70;2.00;;;21.70;99.90;;;;;;5076720;28;20047;-43
2023/08/15 07:58:52;;;;;;;4.10;1.80;;;21.80;99.90;;;;;;5079857;28;20035;-43
2023/08/15 08:01:18;;;;;;;5.53;2.00;;;21.90;99.90;;;;;;5084881;28;20028;-43
2023/08/15 08:03:53;;;;;;;3.42;2.10;;;21.90;99.90;;;;;;5087065;28;20030;-43
2023/08/15 08:06:18;;;;;;;5.00;2.83;;;22.00;99.90;;;;;;5081955;28;20029;-43
2023/08/15 08:08:44;;;;;;;4.15;2.35;;;22.00;99.90;;;;;;5076140;28;20019;-43
2023/08/15 08:11:09;;;;;;;4.90;2.70;;;22.10;99.90;;;;;;5085103;28;20035;-44
2023/08/15 08:13:35;;;;;;;4.15;2.50;;;22.20;99.90;;;;;;5079204;28;20476;-44
2023/08/15 08:16:01;;;;;;;4.30;2.08;;;22.30;99.90;;;;;;5071118;28;20627;-43
2023/08/15 08:18:26;;;;;;;3.33;1.73;;;22.50;99.90;;;;;;5081436;28;20679;-43
2023/08/15 08:20:52;;;;;;;3.30;1.50;;;22.60;99.90;;;;;;5068545;28;20360;-43
2023/08/15 08:23:21;;;;;;;4.63;2.00;;;22.80;99.90;;;;;;5075689;28;20059;-43
2023/08/15 08:25:46;;;;;;;3.88;1.90;;;22.90;99.90;;;;;;5065803;28;20029;-44
2023/08/15 08:28:13;;;;;;;4.55;1.77;;;23.10;99.90;;;;;;5075759;28;20027;-44
2023/08/15 08:30:42;;;;;;;4.07;2.20;;;23.20;99.90;;;;;;5065284;28;20032;-43
2023/08/15 08:33:09;;;;;;;3.40;2.00;;;23.30;99.90;;;;;;5074235;28;20061;-43
2023/08/15 08:35:35;;;;;;;4.70;1.80;;;23.40;99.90;;;;;;5069723;28;20068;-43
2023/08/15 08:38:00;;;;;;;5.43;2.40;;;23.40;99.90;;;;;;5072789;28;20064;-43
2023/08/15 08:40:27;;;;;;;3.70;1.90;;;23.40;99.90;;;;;;5072861;28;20430;-43
2023/08/15 08:42:53;;;;;;;4.85;1.88;;;23.50;99.90;;;;;;5070876;28;20020;-43
2023/08/15 08:45:24;;;;;;;3.97;1.80;;;23.50;99.90;;;;;;5074427;28;20039;-43
2023/08/15 08:47:50;;;;;;;4.47;1.95;;;23.60;99.90;;;;;;5069842;28;20018;-43
2023/08/15 08:50:20;;;;;;;6.15;2.33;;;23.60;99.90;;;;;;5077006;28;20088;-44
2023/08/15 08:52:49;;;;;;;3.42;1.98;;;23.60;99.90;;;;;;5068457;28;20048;-44
2023/08/15 08:55:16;;;;;;;4.78;2.10;;;23.60;99.90;;;;;;5077538;28;20081;-43
2023/08/15 08:57:49;;;;;;;6.15;2.00;;;23.50;99.90;;;;;;5066097;28;20053;-43
2023/08/15 09:00:17;;;;;;;4.70;1.90;;;23.40;99.90;;;;;;5076798;28;20033;-44
2023/08/15 09:02:44;;;;;;;4.00;1.80;;;23.30;99.90;;;;;;5075167;28;20024;-44
2023/08/15 09:05:11;;;;;;;7.22;1.88;;;23.30;99.90;;;;;;5073521;28;20471;-44
2023/08/15 09:07:42;;;;;;;7.72;2.10;;;23.30;99.90;;;;;;5087276;28;20055;-42
2023/08/15 09:10:08;;;;;;;3.60;1.88;;;23.30;99.90;;;;;;5071717;28;20451;-43
2023/08/15 09:12:34;;;;;;;5.78;2.17;;;23.30;99.90;;;;;;5086242;28;20024;-43
2023/08/15 09:15:00;;;;;;;3.42;1.73;;;23.30;99.90;;;;;;5072953;28;20017;-43
2023/08/15 09:17:26;;;;;;;5.82;2.10;;;23.20;99.90;;;;;;5086208;28;20035;-44
2023/08/15 09:19:52;;;;;;;5.30;2.00;;;23.10;99.90;;;;;;5074952;28;20056;-43
2023/08/15 09:22:22;;;;;;;6.38;1.92;;;23.10;99.90;;;;;;5084101;28;20025;-44
2023/08/15 09:24:52;;;;;;;5.22;2.47;;;23.00;99.90;;;;;;5077526;28;20358;-43
2023/08/15 09:27:18;;;;;;;5.55;2.22;;;22.90;99.90;;;;;;5082302;28;20016;-43
2023/08/15 09:29:49;;;;;;;4.28;2.13;;;22.90;99.90;;;;;;5079278;28;20476;-43
2023/08/15 09:32:14;;;;;;;4.88;2.05;;;22.80;99.90;;;;;;5080503;28;20024;-43
2023/08/15 09:34:40;;;;;;;4.45;2.17;;;22.90;99.90;;;;;;5080914;28;20486;-43
2023/08/15 09:37:07;;;;;;;2.92;1.70;;;22.90;99.90;;;;;;5077599;28;20064;-43
2023/08/15 09:39:33;;;;;;;4.45;2.20;;;23.00;99.90;;;;;;5083002;28;20039;-43
2023/08/15 09:41:59;;;;;;;3.95;2.30;;;23.10;99.90;;;;;;5075308;28;20028;-42
2023/08/15 09:44:32;;;;;;;3.22;1.75;;;23.20;99.90;;;;;;5084678;28;20473;-44
2023/08/15 09:47:00;;;;;;;3.47;1.90;;;23.30;99.90;;;;;;5074118;28;20032;-44
2023/08/15 09:49:30;;;;;;;3.15;2.10;;;23.40;99.90;;;;;;5085350;28;20055;-43
2023/08/15 09:51:59;;;;;;;2.83;2.03;;;23.50;99.90;;;;;;5074638;28;20101;-44
2023/08/15 09:54:26;;;;;;;6.45;2.88;;;23.50;99.90;;;;;;5085080;28;20030;-44
2023/08/15 09:56:51;;;;;;;5.53;2.15;;;23.60;99.90;;;;;;5074912;28;20024;-43
2023/08/15 09:59:17;;;;;;;6.05;2.45;;;23.70;99.90;;;;;;5085718;28;20816;-43
2023/08/15 10:01:46;;;;;;;4.93;2.20;;;23.80;99.90;;;;;;5070550;28;20074;-44
2023/08/15 10:04:13;;;;;;;6.13;2.38;;;23.90;99.90;;;;;;5063728;28;20032;-44
2023/08/15 10:06:43;;;;;;;4.70;2.40;;;24.10;99.90;;;;;;5077278;28;20535;-45
2023/08/15 10:09:10;;;;;;;3.63;2.40;;;24.20;99.90;;;;;;5063481;28;20660;-43
2023/08/15 10:11:44;;;;;;;4.55;2.17;;;24.20;99.90;;;;;;5075801;28;20016;-43
2023/08/15 10:14:13;;;;;;;4.25;2.40;;;24.20;99.90;;;;;;5065173;28;20115;-43
2023/08/15 10:16:41;;;;;;;3.83;2.15;;;24.30;99.90;;;;;;5074812;28;20023;-43
2023/08/15 10:19:13;;;;;;;8.23;2.90;;;24.40;99.90;;;;;;5067006;28;20032;-43
2023/08/15 10:21:52;;;;;;;5.93;2.70;;;24.40;99.90;;;;;;5073331;28;20035;-44
2023/08/15 10:24:18;;;;;;;4.30;2.15;;;24.40;99.90;;;;;;5066501;28;20021;-44
2023/08/15 10:26:45;;;;;;;4.43;2.63;;;24.40;99.90;;;;;;5071184;28;20031;-45
2023/08/15 10:29:11;;;;;;;3.45;2.67;;;24.40;99.90;;;;;;5068452;28;20041;-43
2023/08/15 10:31:39;;;;;;;5.10;2.70;;;24.40;99.90;;;;;;5069555;28;20468;-43
2023/08/15 10:34:10;;;;;;;6.22;3.13;;;24.40;99.90;;;;;;5071817;28;20028;-44
2023/08/15 10:36:42;;;;;;;5.82;2.90;;;24.30;99.90;;;;;;5068755;28;20096;-44
2023/08/15 10:39:08;;;;;;;7.38;3.63;;;24.20;99.90;;;;;;5072413;28;20017;-43
2023/08/15 10:41:42;;;;;;;4.97;3.00;;;24.20;99.90;;;;;;5067400;28;20024;-43
2023/08/15 10:44:08;;;;;;;4.07;2.70;;;24.20;99.90;;;;;;5073455;28;20044;-43
2023/08/15 10:46:35;;;;;;;5.35;2.63;;;24.20;99.90;;;;;;5065657;28;20431;-44
2023/08/15 10:49:10;;;;;;;5.53;2.40;;;24.30;99.90;;;;;;5075969;28;20074;-45
2023/08/15 10:51:40;;;;;;;4.60;1.95;;;24.40;99.90;;;;;;5065133;28;20097;-43
2023/08/15 10:54:10;;;;;;;3.50;1.60;;;24.50;99.90;;;;;;5075152;28;20028;-43
2023/08/15 10:56:41;;;;;;;3.80;2.03;;;24.70;99.90;;;;;;5066360;28;20025;-44
2023/08/15 10:59:14;;;;;;;3.13;1.60;;;24.70;99.90;;;;;;5074795;28;20085;-42
2023/08/15 11:01:42;;;;;;;5.10;2.20;;;24.70;99.90;;;;;;5065014;28;20064;-43
2023/08/15 11:04:12;;;;;;;3.40;1.95;;;24.70;99.90;;;;;;5075293;28;20044;-43
2023/08/15 11:06:46;;;;;;;5.10;2.13;;;24.70;99.90;;;;;;5064534;28;20464;-44
2023/08/15 11:09:12;;;;;;;2.15;1.60;;;24.70;99.90;;;;;;5071807;28;20114;-43
2023/08/15 11:11:41;;;;;;;4.35;2.05;;;24.70;99.90;;;;;;5083474;28;20030;-44
2023/08/15 11:14:19;;;;;;;2.85;1.58;;;24.90;99.90;;;;;;5070159;28;20472;-44
2023/08/15 11:16:48;;;;;;;4.47;2.40;;;25.00;99.90;;;;;;5083432;28;20059;-44
2023/08/15 11:19:15;;;;;;;3.15;1.90;;;25.10;99.90;;;;;;5069493;28;20032;-44
2023/08/15 11:21:41;;;;;;;6.15;2.35;;;25.20;99.90;;;;;;5083761;28;20081;-44
2023/08/15 11:24:07;;;;;;;4.78;2.05;;;25.20;99.90;;;;;;5072043;28;20020;-43
2023/08/15 11:26:32;;;;;;;4.15;2.10;;;25.20;99.90;;;;;;5082281;28;20020;-44
2023/08/15 11:28:59;;;;;;;4.90;2.03;;;25.20;99.90;;;;;;5074456;28;20691;-44
2023/08/15 11:31:26;;;;;;;4.90;2.55;;;25.20;99.90;;;;;;5080532;28;20115;-44
2023/08/15 11:33:51;;;;;;;4.45;2.80;;;25.10;99.90;;;;;;5076640;28;20036;-43
2023/08/15 11:36:23;;;;;;;4.70;2.58;;;25.10;99.90;;;;;;5077467;28;20783;-43
2023/08/15 11:38:49;;;;;;;5.20;3.00;;;25.10;99.90;;;;;;5078563;28;20031;-44
2023/08/15 11:41:17;;;;;;;6.13;2.80;;;25.20;99.90;;;;;;5074981;28;20032;-42
2023/08/15 11:43:44;;;;;;;5.22;2.90;;;25.20;99.90;;;;;;5081298;28;20016;-43
2023/08/15 11:46:10;;;;;;;4.32;2.67;;;25.30;99.90;;;;;;5073405;28;20525;-43
2023/08/15 11:48:36;;;;;;;2.70;1.90;;;25.20;99.90;;;;;;5082083;28;20035;-43
2023/08/15 11:51:02;;;;;;;4.57;2.53;;;25.20;99.90;;;;;;5072044;28;20123;-44
2023/08/15 11:53:28;;;;;;;4.72;3.17;;;25.10;99.90;;;;;;5081761;28;20051;-43
2023/08/15 11:55:54;;;;;;;5.43;2.70;;;25.10;99.90;;;;;;5072380;28;20131;-44
2023/08/15 11:58:30;;;;;;;4.65;2.60;;;25.10;99.90;;;;;;5083636;28;20371;-44
2023/08/15 12:01:01;;;;;;;4.32;2.70;;;25.20;99.90;;;;;;5070867;28;20041;-44
2023/08/15 12:03:27;;;;;;;5.38;2.60;;;25.30;99.90;;;;;;5069236;28;20836;-42
2023/08/15 12:05:57;;;;;;;5.43;2.58;;;25.40;99.90;;;;;;5076005;28;20035;-42
2023/08/15 12:08:27;;;;;;;3.08;2.33;;;25.40;99.90;;;;;;5062701;28;20056;-43
2023/08/15 12:10:57;;;;;;;6.30;2.72;;;25.50;99.90;;;;;;5076474;28;20071;-43
2023/08/15 12:13:39;;;;;;;5.45;2.58;;;25.50;99.90;;;;;;5063873;28;20373;-43
2023/08/15 12:16:06;;;;;;;6.32;3.17;;;25.40;99.90;;;;;;5075356;28;20031;-44
2023/08/15 12:18:33;;;;;;;4.68;2.80;;;25.30;99.90;;;;;;5063209;28;20028;-42
2023/08/15 12:21:00;;;;;;;5.32;3.00;;;25.20;99.90;;;;;;5072715;28;20043;-43
2023/08/15 12:23:25;;;;;;;4.40;2.35;;;25.20;99.90;;;;;;5062757;28;20476;-45
2023/08/15 12:25:52;;;;;;;5.05;2.45;;;25.10;99.90;;;;;;5070928;28;20081;-43
2023/08/15 12:28:18;;;;;;;4.32;2.50;;;25.20;99.90;;;;;;5065284;28;20020;-44
2023/08/15 12:30:44;;;;;;;3.42;2.15;;;25.20;99.90;;;;;;5068521;28;20042;-43
2023/08/15 12:33:11;;;;;;;5.82;2.83;;;25.40;99.90;;;;;;5068458;28;20029;-44
2023/08/15 12:35:37;;;;;;;5.38;2.78;;;25.50;99.90;;;;;;5066961;28;20021;-43
2023/08/15 12:38:03;;;;;;;4.18;2.17;;;25.70;99.90;;;;;;5071026;28;20025;-43
2023/08/15 12:40:28;;;;;;;5.97;2.38;;;25.80;99.90;;;;;;5064833;28;20157;-44
2023/08/15 12:42:54;;;;;;;4.82;2.15;;;25.80;99.90;;;;;;5073577;28;20074;-42
2023/08/15 12:45:19;;;;;;;5.95;3.03;;;25.80;99.90;;;;;;5066603;28;20040;-43
2023/08/15 12:47:45;;;;;;;4.07;2.55;;;25.60;99.90;;;;;;5077674;28;20103;-44